Rio Bravo — 9V8092 — position and weather

sailwx.info

Track history (hours):
 
Tides and Currents Weather Stations Pressure Air Temp Water Temp Dewpoint Dewpoint Depression Visibility Wind Speed Wind Dir Waves Ship Positions

Rio Bravo

Last reported at 2018-Apr-24 11:54 UTC. Time now 2018-Apr-24 14:45 UTC.
Position N 37°03' E 003°00'.

Length 286 m; draft 10.8 m.

Type: Ship (hazmat cat D). MMSI: 563050300.

Date/timePositionNaut miles runAvg speedWind from/ knotsBaromVisibWave heightAir tempDewpointWater temp
2018-Apr-24 11:54N 37°03' E 003°00'7119.9
2018-Apr-24 08:21N 36°52' E 001°33'719.7
2018-Apr-24 07:58N 36°51' E 001°24'32518.8
2018-Apr-23 14:42N 35°59' W 005°15'419.9
2018-Apr-23 14:30N 35°59' W 005°19'10319.3
2018-Apr-23 09:10N 36°08' W 007°26'3612.8
2018-Apr-23 06:22N 36°17' W 008°09'412.1
2018-Apr-23 06:00N 36°18' W 008°14'612.0
2018-Apr-23 05:30N 36°20' W 008°21'812.1
2018-Apr-23 04:51N 36°22' W 008°31'1312.0
2018-Apr-23 03:44N 36°26' W 008°47'312.1
2018-Apr-23 03:29N 36°27' W 008°50'611.8
2018-Apr-23 03:00N 36°28' W 008°57'611.9
2018-Apr-23 02:30N 36°30' W 009°04'611.7
2018-Apr-23 01:58N 36°32' W 009°12'6311.1
2018-Apr-22 20:18N 37°29' W 009°46'412.2
2018-Apr-22 20:00N 37°32' W 009°47'612.4
2018-Apr-22 19:29N 37°39' W 009°48'612.6
2018-Apr-22 19:00N 37°45' W 009°50'612.5
2018-Apr-22 18:30N 37°51' W 009°52'612.0
2018-Apr-22 18:00N 37°57' W 009°53'611.8
2018-Apr-22 17:30N 38°03' W 009°55'611.8
2018-Apr-22 17:00N 38°08' W 009°56'611.8
2018-Apr-22 16:30N 38°14' W 009°58'611.8
2018-Apr-22 16:00N 38°20' W 010°00'611.8
2018-Apr-22 15:30N 38°25' W 010°02'611.9
2018-Apr-22 15:00N 38°31' W 010°04'612.1
2018-Apr-22 14:30N 38°37' W 010°06'611.6
2018-Apr-22 14:00N 38°43' W 010°07'611.8
2018-Apr-22 13:30N 38°49' W 010°06'612.0
2018-Apr-22 13:00N 38°55' W 010°06'611.9
2018-Apr-22 12:30N 39°00' W 010°06'612.2
2018-Apr-22 12:00N 39°07' W 010°06'612.0
2018-Apr-22 11:30N 39°13' W 010°07'612.0
2018-Apr-22 11:00N 39°19' W 010°06'611.9
2018-Apr-22 10:30N 39°25' W 010°06'611.9
2018-Apr-22 10:00N 39°31' W 010°06'712.2
2018-Apr-22 09:28N 39°37' W 010°07'612.0
2018-Apr-22 08:58N 39°43' W 010°07'611.9
2018-Apr-22 08:29N 39°49' W 010°07'49111.5
2018-Apr-20 13:47N 47°39' W 006°49'2112.9
2018-Apr-20 12:09N 47°57' W 006°34'314.0
2018-Apr-20 11:58N 47°60' W 006°32'714.1
2018-Apr-20 11:30N 48°05' W 006°27'2514.1
2018-Apr-20 09:42N 48°28' W 006°09'313.6
2018-Apr-20 09:30N 48°30' W 006°07'1113.1
2018-Apr-20 08:40N 48°39' W 005°59'311.7
2018-Apr-20 08:25N 48°42' W 005°57'511.4
2018-Apr-20 07:58N 48°47' W 005°54'611.1
2018-Apr-20 07:27N 48°52' W 005°49'510.2
2018-Apr-20 07:00N 48°55' W 005°44'4110.6
2018-Apr-20 03:04N 49°16' W 004°50'1512.8
2018-Apr-20 01:56N 49°23' W 004°30'1013.2
2018-Apr-20 01:09N 49°29' W 004°17'713.2
2018-Apr-20 00:37N 49°32' W 004°07'313.6
2018-Apr-20 00:23N 49°34' W 004°03'513.5
2018-Apr-19 23:59N 49°36' W 003°56'613.1
2018-Apr-19 23:30N 49°40' W 003°47'612.6
2018-Apr-19 23:00N 49°43' W 003°39'611.8
2018-Apr-19 22:30N 49°46' W 003°31'511.2
2018-Apr-19 22:00N 49°48' W 003°24'510.7
2018-Apr-19 21:30N 49°51' W 003°16'510.5
2018-Apr-19 21:00N 49°53' W 003°09'510.5
2018-Apr-19 20:30N 49°56' W 003°02'510.8
2018-Apr-19 20:00N 49°58' W 002°54'611.1
2018-Apr-19 19:30N 50°01' W 002°47'611.9
2018-Apr-19 19:00N 50°02' W 002°38'612.8
2018-Apr-19 18:30N 50°04' W 002°28'713.7
2018-Apr-19 18:01N 50°06' W 002°18'714.7
2018-Apr-19 17:30N 50°07' W 002°07'815.6
2018-Apr-19 17:00N 50°10' W 001°55'816.1
2018-Apr-19 16:30N 50°12' W 001°43'816.2
2018-Apr-19 16:00N 50°14' W 001°31'816.1
2018-Apr-19 15:31N 50°16' W 001°19'815.8
2018-Apr-19 15:01N 50°18' W 001°07'815.0
2018-Apr-19 14:31N 50°20' W 000°55'713.7
2018-Apr-19 14:00N 50°22' W 000°45'612.8
2018-Apr-19 13:30N 50°24' W 000°35'612.3
2018-Apr-19 13:00N 50°25' W 000°26'611.7
2018-Apr-19 12:30N 50°27' W 000°17'611.2
2018-Apr-19 12:00N 50°28' W 000°08'510.4
2018-Apr-19 11:30N 50°30' W 000°00'510.2
2018-Apr-19 11:00N 50°32' E 000°07'510.0
2018-Apr-19 10:30N 50°33' E 000°14'510.4
2018-Apr-19 10:00N 50°35' E 000°22'611.1
2018-Apr-19 09:30N 50°37' E 000°30'612.1
2018-Apr-19 09:00N 50°39' E 000°39'713.1
2018-Apr-19 08:30N 50°43' E 000°47'713.9
2018-Apr-19 08:00N 50°48' E 000°56'714.4
2018-Apr-19 07:30N 50°52' E 001°05'714.4
2018-Apr-19 07:00N 50°57' E 001°13'714.2
2018-Apr-19 06:30N 51°02' E 001°22'713.3
2018-Apr-19 06:00N 51°06' E 001°30'612.0
2018-Apr-19 05:30N 51°10' E 001°37'611.3
2018-Apr-19 05:00N 51°13' E 001°44'611.0
2018-Apr-19 04:30N 51°18' E 001°48'510.5
2018-Apr-19 04:00N 51°23' E 001°51'510.2
2018-Apr-19 03:30N 51°28' E 001°55'510.3
2018-Apr-19 03:00N 51°31' E 002°01'510.9
2018-Apr-19 02:30N 51°35' E 002°07'611.3
2018-Apr-19 02:00N 51°40' E 002°13'611.5
2018-Apr-19 01:30N 51°44' E 002°19'612.4
2018-Apr-19 01:00N 51°49' E 002°26'712.9
2018-Apr-19 00:30N 51°53' E 002°33'813.7
2018-Apr-18 23:57N 51°58' E 002°42'614.1
2018-Apr-18 23:30N 52°03' E 002°49'714.3
2018-Apr-18 23:00N 52°08' E 002°57'714.5
2018-Apr-18 22:30N 52°14' E 003°04'714.4
2018-Apr-18 22:00N 52°20' E 003°11'714.3
2018-Apr-18 21:30N 52°26' E 003°18'714.1
2018-Apr-18 21:00N 52°31' E 003°24'713.6
2018-Apr-18 20:30N 52°37' E 003°31'613.1
2018-Apr-18 20:00N 52°42' E 003°37'612.6
2018-Apr-18 19:30N 52°47' E 003°44'612.1
2018-Apr-18 18:59N 52°52' E 003°50'611.8
2018-Apr-18 18:30N 52°56' E 003°56'611.6
2018-Apr-18 18:00N 53°00' E 004°04'611.4
2018-Apr-18 17:30N 53°04' E 004°11'611.4
2018-Apr-18 17:00N 53°07' E 004°18'611.3
2018-Apr-18 16:30N 53°11' E 004°25'612.2
2018-Apr-18 15:58N 53°17' E 004°29'612.9
2018-Apr-18 15:30N 53°23' E 004°34'713.1
2018-Apr-18 15:00N 53°28' E 004°39'713.7
2018-Apr-18 14:30N 53°31' E 004°49'714.2
2018-Apr-18 14:01N 53°34' E 005°01'713.6
2018-Apr-18 13:30N 53°36' E 005°12'813.3
2018-Apr-18 12:53N 53°39' E 005°25'512.9
2018-Apr-18 12:30N 53°41' E 005°32'3711.6
2018-Apr-18 09:18N 53°51' E 006°33'3912.0
2018-Apr-18 06:03N 54°01' E 007°37'213.2
2018-Apr-18 05:55N 54°01' E 007°40'613.4
2018-Apr-18 05:29N 54°01' E 007°50'713.6
2018-Apr-18 05:00N 54°01' E 008°01'713.7
2018-Apr-18 04:30N 54°00' E 008°13'917.3
2018-Apr-18 04:00N 53°59' E 008°27'816.9
2018-Apr-18 03:30N 53°55' E 008°40'713.9
2018-Apr-18 03:00N 53°50' E 008°48'714.3
2018-Apr-18 02:31N 53°51' E 009°00'611.2
2018-Apr-18 02:00N 53°53' E 009°09'4 8.5
2018-Apr-18 01:30N 53°52' E 009°17'612.5
2018-Apr-18 01:01N 53°47' E 009°23'510.5
2018-Apr-18 00:30N 53°43' E 009°28'5 9.9
2018-Apr-18 00:00N 53°38' E 009°31'611.7
2018-Apr-17 23:30N 53°34' E 009°38'611.7
2018-Apr-17 23:01N 53°33' E 009°48'5 9.0
2018-Apr-17 22:30N 53°32' E 009°56'2 4.0
2018-Apr-17 22:01N 53°31' E 009°56'0 0.0
2018-Apr-17 21:31N 53°31' E 009°56'0 0.0
2018-Apr-17 21:00N 53°31' E 009°56'0 0.0
2018-Apr-17 20:30N 53°31' E 009°56'0 0.0
2018-Apr-17 20:00N 53°31' E 009°56'0 0.0
2018-Apr-17 19:30N 53°31' E 009°56'0 0.0
2018-Apr-17 19:00N 53°31' E 009°56'0 0.0
2018-Apr-17 18:30N 53°31' E 009°56'0 0.0
2018-Apr-17 18:00N 53°31' E 009°56'0 0.0
2018-Apr-17 17:30N 53°31' E 009°56'0 0.0
2018-Apr-17 17:00N 53°31' E 009°56'0 0.1
2018-Apr-17 16:30N 53°30' E 009°56'0 0.1
2018-Apr-17 16:00N 53°31' E 009°56'0 0.0
2018-Apr-17 15:30N 53°31' E 009°56'0 0.0
2018-Apr-17 15:00N 53°31' E 009°56'0 0.0
2018-Apr-17 14:30N 53°31' E 009°56'0 0.0
2018-Apr-17 14:00N 53°31' E 009°56'0 0.0
2018-Apr-17 13:30N 53°31' E 009°56'0 0.0
2018-Apr-17 13:00N 53°31' E 009°56'0 0.0
2018-Apr-17 12:30N 53°31' E 009°56'0 0.0
2018-Apr-17 12:00N 53°31' E 009°56'0 0.1
2018-Apr-17 11:30N 53°31' E 009°56'0 0.1
2018-Apr-17 11:00N 53°31' E 009°56'0 0.0
2018-Apr-17 10:30N 53°31' E 009°56'0 0.0
2018-Apr-17 10:00N 53°31' E 009°56'0 0.0
2018-Apr-17 09:30N 53°31' E 009°56'0 0.0
2018-Apr-17 09:00N 53°31' E 009°56'0 0.1
2018-Apr-17 08:30N 53°31' E 009°56'0 0.1
2018-Apr-17 08:00N 53°31' E 009°56'0 0.0
2018-Apr-17 07:30N 53°31' E 009°56'0 0.0
2018-Apr-17 07:00N 53°31' E 009°56'0 0.0
2018-Apr-17 06:30N 53°31' E 009°56'0 0.0
2018-Apr-17 06:00N 53°31' E 009°56'0 0.0
2018-Apr-17 05:30N 53°31' E 009°56'0 0.0
2018-Apr-17 05:00N 53°31' E 009°56'0 0.0
2018-Apr-17 04:30N 53°31' E 009°56'0 0.0
2018-Apr-17 04:00N 53°31' E 009°56'0 0.1
2018-Apr-17 03:30N 53°31' E 009°56'0 0.8
2018-Apr-17 03:01N 53°30' E 009°57'3 5.7
2018-Apr-17 02:30N 53°32' E 009°54'510.5
2018-Apr-17 02:00N 53°34' E 009°45'611.5
2018-Apr-17 01:31N 53°36' E 009°36'611.5
2018-Apr-17 01:00N 53°40' E 009°30'612.2
2018-Apr-17 00:31N 53°45' E 009°24'713.3
2018-Apr-17 00:00N 53°51' E 009°19'612.2
2018-Apr-16 23:31N 53°53' E 009°09'611.9
2018-Apr-16 23:00N 53°51' E 008°59'612.9
2018-Apr-16 22:31N 53°50' E 008°49'611.7
2018-Apr-16 22:00N 53°54' E 008°41'612.3
2018-Apr-16 21:30N 53°58' E 008°33'612.8
2018-Apr-16 21:00N 53°59' E 008°22'714.0
2018-Apr-16 20:29N 53°59' E 008°10'5 9.5
2018-Apr-16 20:00N 53°59' E 008°02'4 7.2
2018-Apr-16 19:30N 53°58' E 007°56'3 6.5
2018-Apr-16 19:00N 53°57' E 007°51'2 4.7
2018-Apr-16 18:30N 53°57' E 007°47'3 5.9
2018-Apr-16 17:59N 53°56' E 007°42'4 7.5
2018-Apr-16 17:30N 53°55' E 007°36'4 7.9
2018-Apr-16 17:00N 53°55' E 007°29'74 8.1
2018-Apr-16 07:53N 53°34' E 005°28'4 9.5
2018-Apr-16 07:28N 53°33' E 005°22'4 9.5
2018-Apr-16 07:01N 53°31' E 005°15'5 9.6
2018-Apr-16 06:31N 53°29' E 005°08'611.4
2018-Apr-16 06:01N 53°27' E 004°59'612.2
2018-Apr-16 05:31N 53°25' E 004°50'611.6
2018-Apr-16 05:00N 53°21' E 004°42'712.7
2018-Apr-16 04:29N 53°15' E 004°37'612.6
2018-Apr-16 04:00N 53°10' E 004°32'612.1
2018-Apr-16 03:30N 53°05' E 004°27'611.7
2018-Apr-16 03:00N 52°60' E 004°22'611.6
2018-Apr-16 02:30N 52°54' E 004°18'511.1
2018-Apr-16 02:00N 52°50' E 004°14'510.8
2018-Apr-16 01:30N 52°46' E 004°08'510.6
2018-Apr-16 01:00N 52°42' E 004°02'510.1
2018-Apr-16 00:30N 52°38' E 003°56'5 9.8
2018-Apr-16 00:00N 52°34' E 003°51'5 9.6
2018-Apr-15 23:30N 52°31' E 003°46'5 9.4
2018-Apr-15 23:00N 52°27' E 003°41'5 9.1
2018-Apr-15 22:30N 52°24' E 003°36'4 8.8
2018-Apr-15 22:00N 52°20' E 003°32'5 8.9
2018-Apr-15 21:26N 52°15' E 003°31'4 8.6
2018-Apr-15 21:00N 52°11' E 003°30'4 8.3
2018-Apr-15 20:30N 52°07' E 003°28'4 8.2
2018-Apr-15 20:00N 52°03' E 003°26'4 8.3
2018-Apr-15 19:30N 51°59' E 003°24'4 8.6
2018-Apr-15 19:00N 51°55' E 003°23'4 8.7
2018-Apr-15 18:30N 51°51' E 003°20'5 9.2
2018-Apr-15 18:00N 51°47' E 003°15'5 9.5
2018-Apr-15 17:30N 51°43' E 003°12'814.3
2018-Apr-15 16:58N 51°35' E 003°10'715.2
2018-Apr-15 16:30N 51°30' E 003°04'510.5
2018-Apr-15 16:00N 51°25' E 003°02'714.4
2018-Apr-15 15:31N 51°25' E 003°14'815.9
2018-Apr-15 15:01N 51°25' E 003°27'612.9
2018-Apr-15 14:31N 51°26' E 003°37'510.5
2018-Apr-15 14:00N 51°23' E 003°43'714.2
2018-Apr-15 13:30N 51°22' E 003°55'611.2
2018-Apr-15 13:00N 51°26' E 004°01'611.0
2018-Apr-15 12:30N 51°22' E 004°08'4 8.7
2018-Apr-15 12:00N 51°21' E 004°15'0 0.9
2018-Apr-15 11:30N 51°21' E 004°16'0 0.0
2018-Apr-15 11:00N 51°21' E 004°16'0 0.0
2018-Apr-15 10:31N 51°21' E 004°16'0 0.0
2018-Apr-15 10:01N 51°21' E 004°16'0 0.0
2018-Apr-15 09:30N 51°21' E 004°16'0 0.0
2018-Apr-15 09:00N 51°21' E 004°16'0 0.0
2018-Apr-15 08:30N 51°21' E 004°16'0 0.0
2018-Apr-15 08:00N 51°21' E 004°16'0 0.0
2018-Apr-15 07:31N 51°21' E 004°16'0 0.0
2018-Apr-15 07:01N 51°21' E 004°16'0 0.0
2018-Apr-15 06:31N 51°21' E 004°16'0 0.0
2018-Apr-15 06:01N 51°21' E 004°16'0 0.0
2018-Apr-15 05:29N 51°21' E 004°16'0 0.0
2018-Apr-15 05:01N 51°21' E 004°16'0 0.0
2018-Apr-15 04:31N 51°21' E 004°16'0 0.0
2018-Apr-15 04:00N 51°21' E 004°16'0 0.0
2018-Apr-15 03:30N 51°21' E 004°16'0 0.0
2018-Apr-15 03:01N 51°21' E 004°16'0 0.0
2018-Apr-15 02:30N 51°21' E 004°16'0 0.0
2018-Apr-15 02:01N 51°21' E 004°16'0 0.0
2018-Apr-15 01:30N 51°21' E 004°16'0 0.0
2018-Apr-15 01:01N 51°21' E 004°16'0 0.0
2018-Apr-15 00:31N 51°21' E 004°16'0 0.0
2018-Apr-14 23:58N 51°21' E 004°16'0 0.0
2018-Apr-14 23:31N 51°21' E 004°16'0 0.0
2018-Apr-14 22:59N 51°21' E 004°16'0 0.0
2018-Apr-14 22:30N 51°21' E 004°16'0 0.0
2018-Apr-14 22:00N 51°21' E 004°16'0 0.0
2018-Apr-14 21:31N 51°21' E 004°16'0 0.0
2018-Apr-14 21:00N 51°21' E 004°16'0 0.0
2018-Apr-14 20:30N 51°21' E 004°16'0 0.0
2018-Apr-14 19:59N 51°21' E 004°16'0 0.0
2018-Apr-14 19:30N 51°21' E 004°16'0 0.0
2018-Apr-14 19:00N 51°21' E 004°16'0 0.0
2018-Apr-14 18:31N 51°21' E 004°16'0 0.0
2018-Apr-14 18:00N 51°21' E 004°16'0 0.0
2018-Apr-14 17:30N 51°21' E 004°16'0 0.0
2018-Apr-14 17:00N 51°21' E 004°16'0 0.0
2018-Apr-14 16:30N 51°21' E 004°16'0 0.0
2018-Apr-14 16:00N 51°21' E 004°16'0 0.0
2018-Apr-14 15:31N 51°21' E 004°16'0 0.0
2018-Apr-14 15:00N 51°21' E 004°16'0 0.0
2018-Apr-14 14:30N 51°21' E 004°16'0 0.0
2018-Apr-14 14:01N 51°21' E 004°16'0 0.0
2018-Apr-14 13:31N 51°21' E 004°16'0 0.0
2018-Apr-14 13:00N 51°21' E 004°16'0 0.0
2018-Apr-14 12:30N 51°21' E 004°16'0 0.0
2018-Apr-14 12:00N 51°21' E 004°16'  
Track history (hours):
 
Tides and Currents Weather Stations Pressure Air Temp Water Temp Dewpoint Dewpoint Depression Visibility Wind Speed Wind Dir Waves Ship Positions

Rio Bravo

Last reported at 2018-Apr-24 11:54 UTC. Time now 2018-Apr-24 14:45 UTC.
Position N 37°03' E 003°00'.

Length 286 m; draft 10.8 m.

Type: Ship (hazmat cat D). MMSI: 563050300.

Date/timePositionNaut miles runAvg speedWind from/ knotsBaromVisibWave heightAir tempDewpointWater temp
2018-Apr-24 11:54N 37°03' E 003°00'7119.9
2018-Apr-24 08:21N 36°52' E 001°33'719.7
2018-Apr-24 07:58N 36°51' E 001°24'32518.8
2018-Apr-23 14:42N 35°59' W 005°15'419.9
2018-Apr-23 14:30N 35°59' W 005°19'10319.3
2018-Apr-23 09:10N 36°08' W 007°26'3612.8
2018-Apr-23 06:22N 36°17' W 008°09'412.1
2018-Apr-23 06:00N 36°18' W 008°14'612.0
2018-Apr-23 05:30N 36°20' W 008°21'812.1
2018-Apr-23 04:51N 36°22' W 008°31'1312.0
2018-Apr-23 03:44N 36°26' W 008°47'312.1
2018-Apr-23 03:29N 36°27' W 008°50'611.8
2018-Apr-23 03:00N 36°28' W 008°57'611.9
2018-Apr-23 02:30N 36°30' W 009°04'611.7
2018-Apr-23 01:58N 36°32' W 009°12'6311.1
2018-Apr-22 20:18N 37°29' W 009°46'412.2
2018-Apr-22 20:00N 37°32' W 009°47'612.4
2018-Apr-22 19:29N 37°39' W 009°48'612.6
2018-Apr-22 19:00N 37°45' W 009°50'612.5
2018-Apr-22 18:30N 37°51' W 009°52'612.0
2018-Apr-22 18:00N 37°57' W 009°53'611.8
2018-Apr-22 17:30N 38°03' W 009°55'611.8
2018-Apr-22 17:00N 38°08' W 009°56'611.8
2018-Apr-22 16:30N 38°14' W 009°58'611.8
2018-Apr-22 16:00N 38°20' W 010°00'611.8
2018-Apr-22 15:30N 38°25' W 010°02'611.9
2018-Apr-22 15:00N 38°31' W 010°04'612.1
2018-Apr-22 14:30N 38°37' W 010°06'611.6
2018-Apr-22 14:00N 38°43' W 010°07'611.8
2018-Apr-22 13:30N 38°49' W 010°06'612.0
2018-Apr-22 13:00N 38°55' W 010°06'611.9
2018-Apr-22 12:30N 39°00' W 010°06'612.2
2018-Apr-22 12:00N 39°07' W 010°06'612.0
2018-Apr-22 11:30N 39°13' W 010°07'612.0
2018-Apr-22 11:00N 39°19' W 010°06'611.9
2018-Apr-22 10:30N 39°25' W 010°06'611.9
2018-Apr-22 10:00N 39°31' W 010°06'712.2
2018-Apr-22 09:28N 39°37' W 010°07'612.0
2018-Apr-22 08:58N 39°43' W 010°07'611.9
2018-Apr-22 08:29N 39°49' W 010°07'49111.5
2018-Apr-20 13:47N 47°39' W 006°49'2112.9
2018-Apr-20 12:09N 47°57' W 006°34'314.0
2018-Apr-20 11:58N 47°60' W 006°32'714.1
2018-Apr-20 11:30N 48°05' W 006°27'2514.1
2018-Apr-20 09:42N 48°28' W 006°09'313.6
2018-Apr-20 09:30N 48°30' W 006°07'1113.1
2018-Apr-20 08:40N 48°39' W 005°59'311.7
2018-Apr-20 08:25N 48°42' W 005°57'511.4
2018-Apr-20 07:58N 48°47' W 005°54'611.1
2018-Apr-20 07:27N 48°52' W 005°49'510.2
2018-Apr-20 07:00N 48°55' W 005°44'4110.6
2018-Apr-20 03:04N 49°16' W 004°50'1512.8
2018-Apr-20 01:56N 49°23' W 004°30'1013.2
2018-Apr-20 01:09N 49°29' W 004°17'713.2
2018-Apr-20 00:37N 49°32' W 004°07'313.6
2018-Apr-20 00:23N 49°34' W 004°03'513.5
2018-Apr-19 23:59N 49°36' W 003°56'613.1
2018-Apr-19 23:30N 49°40' W 003°47'612.6
2018-Apr-19 23:00N 49°43' W 003°39'611.8
2018-Apr-19 22:30N 49°46' W 003°31'511.2
2018-Apr-19 22:00N 49°48' W 003°24'510.7
2018-Apr-19 21:30N 49°51' W 003°16'510.5
2018-Apr-19 21:00N 49°53' W 003°09'510.5
2018-Apr-19 20:30N 49°56' W 003°02'510.8
2018-Apr-19 20:00N 49°58' W 002°54'611.1
2018-Apr-19 19:30N 50°01' W 002°47'611.9
2018-Apr-19 19:00N 50°02' W 002°38'612.8
2018-Apr-19 18:30N 50°04' W 002°28'713.7
2018-Apr-19 18:01N 50°06' W 002°18'714.7
2018-Apr-19 17:30N 50°07' W 002°07'815.6
2018-Apr-19 17:00N 50°10' W 001°55'816.1
2018-Apr-19 16:30N 50°12' W 001°43'816.2
2018-Apr-19 16:00N 50°14' W 001°31'816.1
2018-Apr-19 15:31N 50°16' W 001°19'815.8
2018-Apr-19 15:01N 50°18' W 001°07'815.0
2018-Apr-19 14:31N 50°20' W 000°55'713.7
2018-Apr-19 14:00N 50°22' W 000°45'612.8
2018-Apr-19 13:30N 50°24' W 000°35'612.3
2018-Apr-19 13:00N 50°25' W 000°26'611.7
2018-Apr-19 12:30N 50°27' W 000°17'611.2
2018-Apr-19 12:00N 50°28' W 000°08'510.4
2018-Apr-19 11:30N 50°30' W 000°00'510.2
2018-Apr-19 11:00N 50°32' E 000°07'510.0
2018-Apr-19 10:30N 50°33' E 000°14'510.4
2018-Apr-19 10:00N 50°35' E 000°22'611.1
2018-Apr-19 09:30N 50°37' E 000°30'612.1
2018-Apr-19 09:00N 50°39' E 000°39'713.1
2018-Apr-19 08:30N 50°43' E 000°47'713.9
2018-Apr-19 08:00N 50°48' E 000°56'714.4
2018-Apr-19 07:30N 50°52' E 001°05'714.4
2018-Apr-19 07:00N 50°57' E 001°13'714.2
2018-Apr-19 06:30N 51°02' E 001°22'713.3
2018-Apr-19 06:00N 51°06' E 001°30'612.0
2018-Apr-19 05:30N 51°10' E 001°37'611.3
2018-Apr-19 05:00N 51°13' E 001°44'611.0
2018-Apr-19 04:30N 51°18' E 001°48'510.5
2018-Apr-19 04:00N 51°23' E 001°51'510.2
2018-Apr-19 03:30N 51°28' E 001°55'510.3
2018-Apr-19 03:00N 51°31' E 002°01'510.9
2018-Apr-19 02:30N 51°35' E 002°07'611.3
2018-Apr-19 02:00N 51°40' E 002°13'611.5
2018-Apr-19 01:30N 51°44' E 002°19'612.4
2018-Apr-19 01:00N 51°49' E 002°26'712.9
2018-Apr-19 00:30N 51°53' E 002°33'813.7
2018-Apr-18 23:57N 51°58' E 002°42'614.1
2018-Apr-18 23:30N 52°03' E 002°49'714.3
2018-Apr-18 23:00N 52°08' E 002°57'714.5
2018-Apr-18 22:30N 52°14' E 003°04'714.4
2018-Apr-18 22:00N 52°20' E 003°11'714.3
2018-Apr-18 21:30N 52°26' E 003°18'714.1
2018-Apr-18 21:00N 52°31' E 003°24'713.6
2018-Apr-18 20:30N 52°37' E 003°31'613.1
2018-Apr-18 20:00N 52°42' E 003°37'612.6
2018-Apr-18 19:30N 52°47' E 003°44'612.1
2018-Apr-18 18:59N 52°52' E 003°50'611.8
2018-Apr-18 18:30N 52°56' E 003°56'611.6
2018-Apr-18 18:00N 53°00' E 004°04'611.4
2018-Apr-18 17:30N 53°04' E 004°11'611.4
2018-Apr-18 17:00N 53°07' E 004°18'611.3
2018-Apr-18 16:30N 53°11' E 004°25'612.2
2018-Apr-18 15:58N 53°17' E 004°29'612.9
2018-Apr-18 15:30N 53°23' E 004°34'713.1
2018-Apr-18 15:00N 53°28' E 004°39'713.7
2018-Apr-18 14:30N 53°31' E 004°49'714.2
2018-Apr-18 14:01N 53°34' E 005°01'713.6
2018-Apr-18 13:30N 53°36' E 005°12'813.3
2018-Apr-18 12:53N 53°39' E 005°25'512.9
2018-Apr-18 12:30N 53°41' E 005°32'3711.6
2018-Apr-18 09:18N 53°51' E 006°33'3912.0
2018-Apr-18 06:03N 54°01' E 007°37'213.2
2018-Apr-18 05:55N 54°01' E 007°40'613.4
2018-Apr-18 05:29N 54°01' E 007°50'713.6
2018-Apr-18 05:00N 54°01' E 008°01'713.7
2018-Apr-18 04:30N 54°00' E 008°13'917.3
2018-Apr-18 04:00N 53°59' E 008°27'816.9
2018-Apr-18 03:30N 53°55' E 008°40'713.9
2018-Apr-18 03:00N 53°50' E 008°48'714.3
2018-Apr-18 02:31N 53°51' E 009°00'611.2
2018-Apr-18 02:00N 53°53' E 009°09'4 8.5
2018-Apr-18 01:30N 53°52' E 009°17'612.5
2018-Apr-18 01:01N 53°47' E 009°23'510.5
2018-Apr-18 00:30N 53°43' E 009°28'5 9.9
2018-Apr-18 00:00N 53°38' E 009°31'611.7
2018-Apr-17 23:30N 53°34' E 009°38'611.7
2018-Apr-17 23:01N 53°33' E 009°48'5 9.0
2018-Apr-17 22:30N 53°32' E 009°56'2 4.0
2018-Apr-17 22:01N 53°31' E 009°56'0 0.0
2018-Apr-17 21:31N 53°31' E 009°56'0 0.0
2018-Apr-17 21:00N 53°31' E 009°56'0 0.0
2018-Apr-17 20:30N 53°31' E 009°56'0 0.0
2018-Apr-17 20:00N 53°31' E 009°56'0 0.0
2018-Apr-17 19:30N 53°31' E 009°56'0 0.0
2018-Apr-17 19:00N 53°31' E 009°56'0 0.0
2018-Apr-17 18:30N 53°31' E 009°56'0 0.0
2018-Apr-17 18:00N 53°31' E 009°56'0 0.0
2018-Apr-17 17:30N 53°31' E 009°56'0 0.0
2018-Apr-17 17:00N 53°31' E 009°56'0 0.1
2018-Apr-17 16:30N 53°30' E 009°56'0 0.1
2018-Apr-17 16:00N 53°31' E 009°56'0 0.0
2018-Apr-17 15:30N 53°31' E 009°56'0 0.0
2018-Apr-17 15:00N 53°31' E 009°56'0 0.0
2018-Apr-17 14:30N 53°31' E 009°56'0 0.0
2018-Apr-17 14:00N 53°31' E 009°56'0 0.0
2018-Apr-17 13:30N 53°31' E 009°56'0 0.0
2018-Apr-17 13:00N 53°31' E 009°56'0 0.0
2018-Apr-17 12:30N 53°31' E 009°56'0 0.0
2018-Apr-17 12:00N 53°31' E 009°56'0 0.1
2018-Apr-17 11:30N 53°31' E 009°56'0 0.1
2018-Apr-17 11:00N 53°31' E 009°56'0 0.0
2018-Apr-17 10:30N 53°31' E 009°56'0 0.0
2018-Apr-17 10:00N 53°31' E 009°56'0 0.0
2018-Apr-17 09:30N 53°31' E 009°56'0 0.0
2018-Apr-17 09:00N 53°31' E 009°56'0 0.1
2018-Apr-17 08:30N 53°31' E 009°56'0 0.1
2018-Apr-17 08:00N 53°31' E 009°56'0 0.0
2018-Apr-17 07:30N 53°31' E 009°56'0 0.0
2018-Apr-17 07:00N 53°31' E 009°56'0 0.0
2018-Apr-17 06:30N 53°31' E 009°56'0 0.0
2018-Apr-17 06:00N 53°31' E 009°56'0 0.0
2018-Apr-17 05:30N 53°31' E 009°56'0 0.0
2018-Apr-17 05:00N 53°31' E 009°56'0 0.0
2018-Apr-17 04:30N 53°31' E 009°56'0 0.0
2018-Apr-17 04:00N 53°31' E 009°56'0 0.1
2018-Apr-17 03:30N 53°31' E 009°56'0 0.8
2018-Apr-17 03:01N 53°30' E 009°57'3 5.7
2018-Apr-17 02:30N 53°32' E 009°54'510.5
2018-Apr-17 02:00N 53°34' E 009°45'611.5
2018-Apr-17 01:31N 53°36' E 009°36'611.5
2018-Apr-17 01:00N 53°40' E 009°30'612.2
2018-Apr-17 00:31N 53°45' E 009°24'713.3
2018-Apr-17 00:00N 53°51' E 009°19'612.2
2018-Apr-16 23:31N 53°53' E 009°09'611.9
2018-Apr-16 23:00N 53°51' E 008°59'612.9
2018-Apr-16 22:31N 53°50' E 008°49'611.7
2018-Apr-16 22:00N 53°54' E 008°41'612.3
2018-Apr-16 21:30N 53°58' E 008°33'612.8
2018-Apr-16 21:00N 53°59' E 008°22'714.0
2018-Apr-16 20:29N 53°59' E 008°10'5 9.5
2018-Apr-16 20:00N 53°59' E 008°02'4 7.2
2018-Apr-16 19:30N 53°58' E 007°56'3 6.5
2018-Apr-16 19:00N 53°57' E 007°51'2 4.7
2018-Apr-16 18:30N 53°57' E 007°47'3 5.9
2018-Apr-16 17:59N 53°56' E 007°42'4 7.5
2018-Apr-16 17:30N 53°55' E 007°36'4 7.9
2018-Apr-16 17:00N 53°55' E 007°29'74 8.1
2018-Apr-16 07:53N 53°34' E 005°28'4 9.5
2018-Apr-16 07:28N 53°33' E 005°22'4 9.5
2018-Apr-16 07:01N 53°31' E 005°15'5 9.6
2018-Apr-16 06:31N 53°29' E 005°08'611.4
2018-Apr-16 06:01N 53°27' E 004°59'612.2
2018-Apr-16 05:31N 53°25' E 004°50'611.6
2018-Apr-16 05:00N 53°21' E 004°42'712.7
2018-Apr-16 04:29N 53°15' E 004°37'612.6
2018-Apr-16 04:00N 53°10' E 004°32'612.1
2018-Apr-16 03:30N 53°05' E 004°27'611.7
2018-Apr-16 03:00N 52°60' E 004°22'611.6
2018-Apr-16 02:30N 52°54' E 004°18'511.1
2018-Apr-16 02:00N 52°50' E 004°14'510.8
2018-Apr-16 01:30N 52°46' E 004°08'510.6
2018-Apr-16 01:00N 52°42' E 004°02'510.1
2018-Apr-16 00:30N 52°38' E 003°56'5 9.8
2018-Apr-16 00:00N 52°34' E 003°51'5 9.6
2018-Apr-15 23:30N 52°31' E 003°46'5 9.4
2018-Apr-15 23:00N 52°27' E 003°41'5 9.1
2018-Apr-15 22:30N 52°24' E 003°36'4 8.8
2018-Apr-15 22:00N 52°20' E 003°32'5 8.9
2018-Apr-15 21:26N 52°15' E 003°31'4 8.6
2018-Apr-15 21:00N 52°11' E 003°30'4 8.3
2018-Apr-15 20:30N 52°07' E 003°28'4 8.2
2018-Apr-15 20:00N 52°03' E 003°26'4 8.3
2018-Apr-15 19:30N 51°59' E 003°24'4 8.6
2018-Apr-15 19:00N 51°55' E 003°23'4 8.7
2018-Apr-15 18:30N 51°51' E 003°20'5 9.2
2018-Apr-15 18:00N 51°47' E 003°15'5 9.5
2018-Apr-15 17:30N 51°43' E 003°12'814.3
2018-Apr-15 16:58N 51°35' E 003°10'715.2
2018-Apr-15 16:30N 51°30' E 003°04'510.5
2018-Apr-15 16:00N 51°25' E 003°02'714.4
2018-Apr-15 15:31N 51°25' E 003°14'815.9
2018-Apr-15 15:01N 51°25' E 003°27'612.9
2018-Apr-15 14:31N 51°26' E 003°37'510.5
2018-Apr-15 14:00N 51°23' E 003°43'714.2
2018-Apr-15 13:30N 51°22' E 003°55'611.2
2018-Apr-15 13:00N 51°26' E 004°01'611.0
2018-Apr-15 12:30N 51°22' E 004°08'4 8.7
2018-Apr-15 12:00N 51°21' E 004°15'0 0.9
2018-Apr-15 11:30N 51°21' E 004°16'0 0.0
2018-Apr-15 11:00N 51°21' E 004°16'0 0.0
2018-Apr-15 10:31N 51°21' E 004°16'0 0.0
2018-Apr-15 10:01N 51°21' E 004°16'0 0.0
2018-Apr-15 09:30N 51°21' E 004°16'0 0.0
2018-Apr-15 09:00N 51°21' E 004°16'0 0.0
2018-Apr-15 08:30N 51°21' E 004°16'0 0.0
2018-Apr-15 08:00N 51°21' E 004°16'0 0.0
2018-Apr-15 07:31N 51°21' E 004°16'0 0.0
2018-Apr-15 07:01N 51°21' E 004°16'0 0.0
2018-Apr-15 06:31N 51°21' E 004°16'0 0.0
2018-Apr-15 06:01N 51°21' E 004°16'0 0.0
2018-Apr-15 05:29N 51°21' E 004°16'0 0.0
2018-Apr-15 05:01N 51°21' E 004°16'0 0.0
2018-Apr-15 04:31N 51°21' E 004°16'0 0.0
2018-Apr-15 04:00N 51°21' E 004°16'0 0.0
2018-Apr-15 03:30N 51°21' E 004°16'0 0.0
2018-Apr-15 03:01N 51°21' E 004°16'0 0.0
2018-Apr-15 02:30N 51°21' E 004°16'0 0.0
2018-Apr-15 02:01N 51°21' E 004°16'0 0.0
2018-Apr-15 01:30N 51°21' E 004°16'0 0.0
2018-Apr-15 01:01N 51°21' E 004°16'0 0.0
2018-Apr-15 00:31N 51°21' E 004°16'0 0.0
2018-Apr-14 23:58N 51°21' E 004°16'0 0.0
2018-Apr-14 23:31N 51°21' E 004°16'0 0.0
2018-Apr-14 22:59N 51°21' E 004°16'0 0.0
2018-Apr-14 22:30N 51°21' E 004°16'0 0.0
2018-Apr-14 22:00N 51°21' E 004°16'0 0.0
2018-Apr-14 21:31N 51°21' E 004°16'0 0.0
2018-Apr-14 21:00N 51°21' E 004°16'0 0.0
2018-Apr-14 20:30N 51°21' E 004°16'0 0.0
2018-Apr-14 19:59N 51°21' E 004°16'0 0.0
2018-Apr-14 19:30N 51°21' E 004°16'0 0.0
2018-Apr-14 19:00N 51°21' E 004°16'0 0.0
2018-Apr-14 18:31N 51°21' E 004°16'0 0.0
2018-Apr-14 18:00N 51°21' E 004°16'0 0.0
2018-Apr-14 17:30N 51°21' E 004°16'0 0.0
2018-Apr-14 17:00N 51°21' E 004°16'0 0.0
2018-Apr-14 16:30N 51°21' E 004°16'0 0.0
2018-Apr-14 16:00N 51°21' E 004°16'0 0.0
2018-Apr-14 15:31N 51°21' E 004°16'0 0.0
2018-Apr-14 15:00N 51°21' E 004°16'0 0.0
2018-Apr-14 14:30N 51°21' E 004°16'0 0.0
2018-Apr-14 14:01N 51°21' E 004°16'0 0.0
2018-Apr-14 13:31N 51°21' E 004°16'0 0.0
2018-Apr-14 13:00N 51°21' E 004°16'0 0.0
2018-Apr-14 12:30N 51°21' E 004°16'0 0.0
2018-Apr-14 12:00N 51°21' E 004°16'  

Dump ship's entire track history